Dickson, Tennessee
Current Conditions -  °F | °C
As of 2:32 AM on Monday 22 Dec 2014 (Local Time) from KCKV Reporting Station
Overcast Overcast  
Wind Chill: 39°   Ceiling: 1500
Heat Index: 42°   Visibility: 10mi
Dew Point: 38°   Wind: 5mph
Humidity: 85%   Direction: 150°SSE
Pressure: 29.95"   Gusts: NA
Location:  36.08°N, 87.39°W
Report Text: KCKV 220832Z AUTO 15004KT 10SM BKN015 OVC100 06/03 A2995 RMK AO2 T00560033
Loading
Personal Weather Stations






























Interactive Weather Map New forecast layout! Learn more

10-Day Weather Forecast

Advertisements
Track Severe Weather on mobile